Řízení letového provozu České republiky
Letiste: LKNA Aktualizace: 27.06.2016 14:08:07  UTC
 METAR LKNA 27.06. 14:00 ...
METAR LKNA 271400Z 32012KT 9999 SCT040 BKN100 19/10 Q1019 NOSIG=
 TAF LKNA 27.06. 11:00 RRA
TAF LKNA 271100Z 2713/2812 23016KT 8000 BKN010 OVC040      BECMG 2714/2716 9999 SCT015 BKN050 BKN100      BECMG 2717/2719 32004KT CAVOK=